createdAt,value
2022-11-30T00:03:08.742Z,101281.00
2022-11-30T00:09:11.810Z,101288.00
2022-11-30T00:15:14.955Z,101296.00
2022-11-30T00:21:17.190Z,101298.00
2022-11-30T00:27:19.401Z,101285.00
2022-11-30T00:33:21.722Z,101279.00
2022-11-30T00:39:24.084Z,101278.00
2022-11-30T00:45:26.247Z,101281.00
2022-11-30T00:51:28.478Z,101275.00
2022-11-30T00:57:30.808Z,101270.00
2022-11-30T01:03:34.005Z,101274.00
2022-11-30T01:09:36.769Z,101283.00
2022-11-30T01:15:41.380Z,101286.00
2022-11-30T01:21:43.697Z,101275.00
2022-11-30T01:27:49.411Z,101258.00
2022-11-30T01:33:53.341Z,101265.00
2022-11-30T01:39:55.559Z,101252.00
2022-11-30T01:45:57.952Z,101249.00
2022-11-30T01:52:06.439Z,101247.00
2022-11-30T01:58:18.512Z,101239.00
2022-11-30T02:04:29.861Z,101240.00
2022-11-30T02:10:36.011Z,101238.00
2022-11-30T02:16:51.115Z,101230.00
2022-11-30T02:23:21.069Z,101233.00
2022-11-30T02:29:39.131Z,101252.00
2022-11-30T02:35:44.460Z,101266.00
2022-11-30T02:41:46.470Z,101268.00
2022-11-30T02:48:16.122Z,101256.00
2022-11-30T02:54:19.120Z,101257.00
2022-11-30T03:00:21.405Z,101258.00
2022-11-30T03:06:23.684Z,101274.00
2022-11-30T03:12:26.720Z,101285.00
2022-11-30T03:18:29.223Z,101272.00
2022-11-30T03:24:31.624Z,101278.00
2022-11-30T03:30:34.050Z,101272.00
2022-11-30T03:36:56.402Z,101276.00
2022-11-30T03:42:58.725Z,101267.00
2022-11-30T03:49:01.221Z,101268.00
2022-11-30T03:55:19.689Z,101245.00
2022-11-30T04:01:25.437Z,101245.00
2022-11-30T04:07:27.499Z,101249.00
2022-11-30T04:13:31.262Z,101263.00
2022-11-30T04:19:33.421Z,101279.00
2022-11-30T04:25:37.500Z,101283.00
2022-11-30T04:31:39.774Z,101285.00
2022-11-30T04:37:41.930Z,101290.00
2022-11-30T04:43:44.118Z,101295.00
2022-11-30T04:49:46.413Z,101284.00
2022-11-30T04:55:48.406Z,101292.00
2022-11-30T05:01:50.756Z,101279.00
2022-11-30T05:07:57.826Z,101289.00
2022-11-30T05:14:00.006Z,101285.00
2022-11-30T05:20:02.290Z,101274.00
2022-11-30T05:26:20.784Z,101276.00
2022-11-30T05:32:22.999Z,101269.00
2022-11-30T05:38:25.543Z,101289.00
2022-11-30T05:44:27.791Z,101297.00
2022-11-30T05:50:30.027Z,101299.00
2022-11-30T05:56:32.416Z,101307.00
2022-11-30T06:02:34.901Z,101301.00
2022-11-30T06:08:37.258Z,101319.00
2022-11-30T06:14:39.658Z,101311.00
2022-11-30T06:20:41.695Z,101319.00
2022-11-30T06:26:44.052Z,101313.00
2022-11-30T06:32:51.214Z,101341.00
2022-11-30T06:38:53.487Z,101339.00
2022-11-30T06:44:55.915Z,101342.00
2022-11-30T06:50:59.129Z,101344.00
2022-11-30T06:57:01.607Z,101352.00
2022-11-30T07:03:05.253Z,101363.00
2022-11-30T07:09:07.534Z,101373.00
2022-11-30T07:15:10.462Z,101362.00
2022-11-30T07:21:12.973Z,101380.00
2022-11-30T07:27:15.294Z,101365.00
2022-11-30T07:33:17.899Z,101384.00
2022-11-30T07:39:20.019Z,101398.00
2022-11-30T07:45:22.171Z,101385.00
2022-11-30T07:51:24.617Z,101396.00
2022-11-30T07:57:27.884Z,101397.00
2022-11-30T08:03:36.444Z,101404.00
2022-11-30T08:09:39.265Z,101407.00
2022-11-30T08:15:41.550Z,101400.00
2022-11-30T08:21:43.735Z,101372.00
2022-11-30T08:27:45.919Z,101366.00
2022-11-30T08:33:48.716Z,101403.00
2022-11-30T08:39:50.939Z,101407.00
2022-11-30T08:45:57.136Z,101406.00
2022-11-30T08:58:22.026Z,101386.00
2022-11-30T09:04:28.552Z,101386.00
2022-11-30T09:10:30.770Z,101377.00
2022-11-30T09:16:33.307Z,101378.00
2022-11-30T09:22:35.814Z,101374.00
2022-11-30T09:28:39.140Z,101358.00
2022-11-30T09:34:41.336Z,101351.00
2022-11-30T09:40:43.787Z,101335.00
2022-11-30T09:47:16.566Z,101346.00
2022-11-30T09:53:41.662Z,101320.00
2022-11-30T09:59:52.147Z,101333.00
2022-11-30T10:06:06.094Z,101334.00
2022-11-30T10:12:23.660Z,101338.00
2022-11-30T10:18:52.342Z,101341.00
2022-11-30T10:25:12.656Z,101338.00
2022-11-30T10:31:15.580Z,101320.00
2022-11-30T10:37:27.879Z,101312.00
2022-11-30T10:43:30.097Z,101302.00
2022-11-30T10:49:33.323Z,101299.00
2022-11-30T10:55:40.792Z,101294.00
2022-11-30T11:01:43.636Z,101291.00
2022-11-30T11:07:50.536Z,101306.00
2022-11-30T11:13:52.932Z,101304.00
2022-11-30T11:19:55.383Z,101310.00
2022-11-30T11:25:57.903Z,101295.00
2022-11-30T11:32:19.472Z,101306.00
2022-11-30T11:38:27.973Z,101347.00
2022-11-30T11:44:30.385Z,101327.00
2022-11-30T11:56:59.799Z,101340.00
2022-11-30T12:03:27.685Z,101340.00
2022-11-30T12:09:36.686Z,101355.00
2022-11-30T12:15:55.477Z,101347.00
2022-11-30T12:22:03.948Z,101363.00
2022-11-30T12:28:18.510Z,101342.00
2022-11-30T12:34:20.787Z,101360.00
2022-11-30T12:40:33.892Z,101356.00
2022-11-30T12:47:08.388Z,101350.00
2022-11-30T12:53:50.847Z,101355.00
2022-11-30T13:00:17.415Z,101357.00
2022-11-30T13:06:32.604Z,101371.00
2022-11-30T13:12:39.501Z,101374.00
2022-11-30T13:18:42.630Z,101383.00
2022-11-30T13:24:52.117Z,101372.00
2022-11-30T13:31:03.895Z,101370.00
2022-11-30T13:37:13.076Z,101368.00
2022-11-30T13:43:20.171Z,101376.00
2022-11-30T13:49:27.946Z,101381.00
2022-11-30T13:55:36.045Z,101386.00
2022-11-30T14:08:00.631Z,101378.00
2022-11-30T14:14:46.550Z,101365.00
2022-11-30T14:20:58.607Z,101376.00
2022-11-30T14:27:03.646Z,101378.00
2022-11-30T14:33:32.474Z,101373.00
2022-11-30T14:39:42.583Z,101371.00
2022-11-30T14:46:04.838Z,101374.00
2022-11-30T14:52:15.008Z,101392.00
2022-11-30T14:58:33.821Z,101386.00
2022-11-30T15:04:37.539Z,101390.00
2022-11-30T15:10:39.975Z,101380.00
2022-11-30T15:16:57.401Z,101398.00
2022-11-30T15:23:00.602Z,101391.00
2022-11-30T15:29:10.047Z,101395.00
2022-11-30T15:35:30.765Z,101411.00
2022-11-30T15:41:45.957Z,101414.00
2022-11-30T15:47:48.733Z,101422.00
2022-11-30T15:53:52.012Z,101427.00
2022-11-30T16:00:17.216Z,101430.00
2022-11-30T16:06:20.426Z,101410.00
2022-11-30T16:12:30.402Z,101424.00
2022-11-30T16:18:32.778Z,101441.00
2022-11-30T16:24:35.315Z,101443.00
2022-11-30T16:30:38.629Z,101449.00
2022-11-30T16:36:40.959Z,101443.00
2022-11-30T16:42:43.491Z,101456.00
2022-11-30T16:48:48.128Z,101461.00
2022-11-30T16:54:50.465Z,101458.00
2022-11-30T17:00:53.046Z,101442.00
2022-11-30T17:07:01.999Z,101429.00
2022-11-30T17:13:05.721Z,101425.00
2022-11-30T17:19:08.266Z,101435.00
2022-11-30T17:25:14.521Z,101424.00
2022-11-30T17:31:17.386Z,101425.00
2022-11-30T17:37:20.057Z,101443.00
2022-11-30T17:43:22.367Z,101434.00
2022-11-30T17:49:24.744Z,101434.00
2022-11-30T17:55:27.540Z,101432.00
2022-11-30T18:01:30.113Z,101428.00
2022-11-30T18:07:32.738Z,101437.00
2022-11-30T18:13:35.130Z,101437.00
2022-11-30T18:19:37.637Z,101436.00
2022-11-30T18:25:41.711Z,101430.00
2022-11-30T18:31:44.316Z,101432.00
2022-11-30T18:37:46.481Z,101425.00
2022-11-30T18:43:48.656Z,101450.00
2022-11-30T18:49:50.804Z,101438.00
2022-11-30T18:55:53.095Z,101450.00
2022-11-30T19:01:55.781Z,101461.00
2022-11-30T19:08:04.281Z,101466.00
2022-11-30T19:14:07.606Z,101463.00
2022-11-30T19:20:10.494Z,101456.00
2022-11-30T19:26:13.988Z,101466.00
2022-11-30T19:32:16.605Z,101478.00
2022-11-30T19:38:18.854Z,101480.00
2022-11-30T19:44:21.240Z,101485.00
2022-11-30T19:50:23.495Z,101484.00
2022-11-30T19:56:26.669Z,101480.00
2022-11-30T20:02:29.025Z,101482.00
2022-11-30T20:08:31.236Z,101482.00
2022-11-30T20:14:33.321Z,101485.00
2022-11-30T20:20:36.050Z,101504.00
2022-11-30T20:26:47.722Z,101503.00
2022-11-30T20:32:50.139Z,101503.00
2022-11-30T20:38:52.222Z,101494.00
2022-11-30T20:44:54.763Z,101503.00
2022-11-30T20:51:28.679Z,101508.00
2022-11-30T20:57:19.126Z,101520.00
2022-11-30T21:03:21.286Z,101519.00
2022-11-30T21:09:23.559Z,101511.00
2022-11-30T21:15:26.253Z,101512.00
2022-11-30T21:21:31.650Z,101520.00
2022-11-30T21:27:33.907Z,101523.00
2022-11-30T21:33:36.234Z,101521.00
2022-11-30T21:39:38.663Z,101511.00
2022-11-30T21:45:41.011Z,101517.00
2022-11-30T21:51:43.511Z,101503.00
2022-11-30T21:57:45.625Z,101495.00
2022-11-30T22:03:48.508Z,101493.00
2022-11-30T22:09:51.006Z,101507.00
2022-11-30T22:16:00.401Z,101497.00
2022-11-30T22:22:02.658Z,101478.00
2022-11-30T22:28:05.018Z,101496.00
2022-11-30T22:34:07.708Z,101488.00
2022-11-30T22:40:10.414Z,101487.00
2022-11-30T22:46:15.937Z,101463.00
2022-11-30T22:52:18.246Z,101476.00
2022-11-30T22:58:20.322Z,101464.00
2022-11-30T23:04:25.744Z,101465.00
2022-11-30T23:10:27.964Z,101466.00
2022-11-30T23:16:30.132Z,101469.00
2022-11-30T23:22:32.446Z,101477.00
2022-11-30T23:28:34.611Z,101469.00
2022-11-30T23:34:37.041Z,101471.00
2022-11-30T23:40:39.144Z,101478.00
2022-11-30T23:46:41.610Z,101464.00
2022-11-30T23:52:43.880Z,101463.00
2022-11-30T23:58:46.234Z,101456.00
